Time;durP1;ratioP1;P1;durP2;ratioP2;P2;SDS_P1;SDS_P2;PMS_P1;PMS_P2;Temp;Humidity;BMP_temperature;BMP_pressure;BME280_temperature;BME280_humidity;BME280_pressure;Samples;Min_cycle;Max_cycle;Signal;HPM_P1;HPM_P2
2023/11/17 00:01:39;;;;;;;3.35;2.10;;;7.60;99.90;;;;;;4972596;28;20034;-73
2023/11/17 00:04:05;;;;;;;4.13;2.13;;;7.50;99.90;;;;;;4974863;28;20045;-73
2023/11/17 00:06:33;;;;;;;4.47;2.53;;;7.50;99.90;;;;;;4975206;28;20022;-73
2023/11/17 00:09:00;;;;;;;3.55;2.20;;;7.50;99.90;;;;;;4971907;28;20023;-73
2023/11/17 00:11:26;;;;;;;3.88;2.35;;;7.50;99.90;;;;;;4975218;28;20088;-73
2023/11/17 00:13:53;;;;;;;3.53;1.70;;;7.50;99.90;;;;;;4974841;28;20054;-73
2023/11/17 00:16:19;;;;;;;3.22;2.10;;;7.60;99.90;;;;;;4975228;28;20026;-73
2023/11/17 00:18:45;;;;;;;7.00;2.22;;;7.50;99.90;;;;;;4973435;28;20109;-73
2023/11/17 00:21:13;;;;;;;6.60;2.47;;;7.50;99.90;;;;;;4992322;28;20118;-73
2023/11/17 00:23:39;;;;;;;2.97;1.75;;;7.50;99.90;;;;;;4956973;28;20054;-73
2023/11/17 00:26:04;;;;;;;3.67;1.83;;;7.50;99.90;;;;;;4976027;28;20069;-73
2023/11/17 00:28:39;;;;;;;6.80;2.85;;;7.50;99.90;;;;;;4971734;28;20034;-73
2023/11/17 00:31:13;;;;;;;7.63;1.77;;;7.50;99.90;;;;;;4967676;28;20037;-72
2023/11/17 00:33:40;;;;;;;4.40;2.75;;;7.50;99.90;;;;;;4975164;28;20051;-73
2023/11/17 00:36:09;;;;;;;10.68;3.88;;;7.50;99.90;;;;;;4974187;28;20130;-71
2023/11/17 00:38:36;;;;;;;6.75;3.05;;;7.50;99.90;;;;;;4974348;28;20053;-71
2023/11/17 00:41:03;;;;;;;14.02;3.35;;;7.50;99.90;;;;;;4958664;28;20441;-71
2023/11/17 00:43:32;;;;;;;10.30;2.38;;;7.50;99.90;;;;;;4992616;28;20100;-72
2023/11/17 00:45:58;;;;;;;10.60;3.28;;;7.50;99.90;;;;;;4974432;28;20137;-70
2023/11/17 00:48:28;;;;;;;4.45;1.83;;;7.50;99.90;;;;;;4975022;28;20049;-71
2023/11/17 00:50:59;;;;;;;3.17;2.17;;;7.50;99.90;;;;;;4973916;28;20022;-71
2023/11/17 00:53:29;;;;;;;5.00;2.73;;;7.50;99.90;;;;;;4970818;28;20039;-71
2023/11/17 00:56:01;;;;;;;2.35;1.90;;;7.50;99.90;;;;;;4974400;28;20285;-71
2023/11/17 00:58:27;;;;;;;3.97;2.25;;;7.50;99.90;;;;;;4975098;28;20026;-71
2023/11/17 01:00:56;;;;;;;10.52;2.65;;;7.50;99.90;;;;;;4974033;28;20389;-70
2023/11/17 01:03:23;;;;;;;4.55;2.38;;;7.50;99.90;;;;;;4967103;28;20138;-70
2023/11/17 01:05:49;;;;;;;3.25;1.50;;;7.50;99.90;;;;;;4974955;28;20085;-72
2023/11/17 01:08:15;;;;;;;4.38;2.78;;;7.50;99.90;;;;;;4992859;28;20541;-70
2023/11/17 01:10:41;;;;;;;4.32;2.17;;;7.50;99.90;;;;;;4987234;28;20109;-73
2023/11/17 01:13:08;;;;;;;6.20;2.40;;;7.50;99.90;;;;;;4958486;28;20030;-74
2023/11/17 01:15:35;;;;;;;5.95;2.72;;;7.50;99.90;;;;;;4980121;28;20025;-74
2023/11/17 01:18:06;;;;;;;11.20;2.47;;;7.50;99.90;;;;;;4981208;28;20080;-75
2023/11/17 01:20:34;;;;;;;8.10;3.33;;;7.50;99.90;;;;;;4980799;28;20054;-71
2023/11/17 01:23:01;;;;;;;6.15;2.97;;;7.50;99.90;;;;;;4978125;28;20125;-71
2023/11/17 01:25:33;;;;;;;5.47;2.22;;;7.50;99.90;;;;;;4974250;28;20031;-72
2023/11/17 01:28:01;;;;;;;5.97;1.88;;;7.50;99.90;;;;;;4989289;28;20089;-71
2023/11/17 01:30:30;;;;;;;8.13;4.90;;;7.50;99.90;;;;;;4980820;28;20074;-74
2023/11/17 01:32:56;;;;;;;5.05;3.00;;;7.50;99.90;;;;;;4980788;28;20045;-71
2023/11/17 01:35:22;;;;;;;6.93;2.63;;;7.50;99.90;;;;;;4980673;28;20026;-72
2023/11/17 01:37:48;;;;;;;6.13;2.72;;;7.50;99.90;;;;;;4979579;28;20074;-70
2023/11/17 01:40:18;;;;;;;7.32;2.50;;;7.50;99.90;;;;;;4997673;28;20500;-71
2023/11/17 01:42:44;;;;;;;4.85;3.15;;;7.60;99.90;;;;;;4981256;28;20023;-70
2023/11/17 01:45:10;;;;;;;5.60;3.53;;;7.60;99.90;;;;;;4997610;28;20038;-70
2023/11/17 01:47:39;;;;;;;8.18;3.55;;;7.60;99.90;;;;;;4977723;28;20078;-70
2023/11/17 01:50:09;;;;;;;10.93;3.58;;;7.60;99.90;;;;;;4964424;28;20037;-71
2023/11/17 01:52:43;;;;;;;9.32;4.68;;;7.60;99.90;;;;;;4998266;28;20373;-72
2023/11/17 01:55:11;;;;;;;12.23;4.40;;;7.60;99.90;;;;;;4981349;28;20018;-69
2023/11/17 01:57:38;;;;;;;13.75;5.68;;;7.70;99.90;;;;;;4996797;28;20019;-71
2023/11/17 02:00:14;;;;;;;17.90;5.95;;;7.70;99.90;;;;;;4980251;28;20053;-71
2023/11/17 02:02:48;;;;;;;13.77;5.88;;;7.70;99.90;;;;;;4964643;28;20121;-72
2023/11/17 02:05:20;;;;;;;11.75;4.93;;;7.80;99.90;;;;;;4977554;28;20046;-70
2023/11/17 02:08:26;;;;;;;8.95;4.28;;;7.70;99.90;;;;;;4978938;28;20041;-69
2023/11/17 02:11:37;;;;;;;18.70;4.65;;;7.70;99.90;;;;;;4996710;28;20038;-70
2023/11/17 02:14:18;;;;;;;12.65;4.80;;;7.70;99.90;;;;;;4990695;28;20058;-70
2023/11/17 02:16:50;;;;;;;10.38;4.65;;;7.70;99.90;;;;;;4981555;28;20030;-70
2023/11/17 02:19:38;;;;;;;8.77;3.92;;;7.70;99.90;;;;;;4980613;28;20026;-71
2023/11/17 02:22:17;;;;;;;5.75;2.92;;;7.70;99.90;;;;;;4977121;28;20392;-70
2023/11/17 02:25:10;;;;;;;5.97;3.53;;;7.60;99.90;;;;;;4978515;28;20395;-70
2023/11/17 02:27:45;;;;;;;9.57;2.88;;;7.60;99.90;;;;;;4994063;28;20022;-70
2023/11/17 02:30:19;;;;;;;8.05;3.33;;;7.70;99.90;;;;;;4973182;28;20117;-70
2023/11/17 02:32:50;;;;;;;7.40;3.13;;;7.70;99.90;;;;;;4992688;28;20062;-69
2023/11/17 02:35:16;;;;;;;11.90;3.97;;;7.70;99.90;;;;;;4960967;28;20428;-70
2023/11/17 02:37:43;;;;;;;13.32;3.63;;;7.70;99.90;;;;;;4994429;28;20097;-70
2023/11/17 02:40:19;;;;;;;11.75;4.28;;;7.70;99.90;;;;;;4977119;28;20030;-70
2023/11/17 02:42:53;;;;;;;9.93;3.45;;;7.70;99.90;;;;;;4978076;28;20027;-69
2023/11/17 02:45:25;;;;;;;12.90;3.53;;;7.70;99.90;;;;;;4955311;28;20373;-70
2023/11/17 02:47:56;;;;;;;7.55;3.55;;;7.70;99.90;;;;;;4976320;28;20026;-71
2023/11/17 02:50:31;;;;;;;7.50;2.80;;;7.70;99.90;;;;;;4971816;28;20037;-71
2023/11/17 02:53:23;;;;;;;9.75;3.17;;;7.70;99.90;;;;;;4992497;28;20037;-69
2023/11/17 02:55:51;;;;;;;9.77;3.15;;;7.70;99.90;;;;;;4972452;28;20614;-69
2023/11/17 02:58:18;;;;;;;4.78;2.22;;;7.70;99.90;;;;;;4977021;28;20105;-71
2023/11/17 03:00:47;;;;;;;6.22;2.83;;;7.60;99.90;;;;;;4969107;28;20037;-70
2023/11/17 03:03:13;;;;;;;5.50;3.10;;;7.70;99.90;;;;;;4977161;28;20078;-69
2023/11/17 03:05:39;;;;;;;4.57;2.40;;;7.70;99.90;;;;;;4952771;28;20520;-70
2023/11/17 03:08:07;;;;;;;3.30;2.22;;;7.60;99.90;;;;;;4993763;28;20076;-70
2023/11/17 03:10:34;;;;;;;3.40;2.22;;;7.60;99.90;;;;;;4976672;28;20030;-69
2023/11/17 03:13:00;;;;;;;8.10;3.28;;;7.70;99.90;;;;;;4973439;28;20708;-69
2023/11/17 03:15:28;;;;;;;2.55;1.90;;;7.70;99.90;;;;;;4976294;28;20038;-69
2023/11/17 03:17:54;;;;;;;2.42;1.63;;;7.60;99.90;;;;;;4976868;28;20026;-70
2023/11/17 03:20:20;;;;;;;2.33;1.58;;;7.70;99.90;;;;;;4991974;28;20037;-69
2023/11/17 03:22:46;;;;;;;2.83;2.15;;;7.60;99.90;;;;;;4993680;28;20030;-69
2023/11/17 03:25:15;;;;;;;3.17;1.98;;;7.70;99.90;;;;;;4975812;28;20045;-70
2023/11/17 03:27:43;;;;;;;3.50;1.63;;;7.80;99.90;;;;;;4993326;28;20054;-69
2023/11/17 03:30:11;;;;;;;6.30;2.45;;;7.70;99.90;;;;;;4975764;28;20037;-69
2023/11/17 03:32:37;;;;;;;3.20;2.30;;;7.70;99.90;;;;;;4973126;28;20031;-70
2023/11/17 03:35:04;;;;;;;7.22;3.22;;;7.70;99.90;;;;;;4992822;28;20507;-69
2023/11/17 03:37:33;;;;;;;3.78;1.88;;;7.80;99.90;;;;;;4991804;28;20025;-70
2023/11/17 03:39:58;;;;;;;6.22;2.50;;;7.70;99.90;;;;;;4975453;28;20620;-69
2023/11/17 03:42:24;;;;;;;14.85;2.40;;;7.70;99.90;;;;;;4972590;28;20118;-70
2023/11/17 03:44:51;;;;;;;4.47;2.00;;;7.70;99.90;;;;;;4974281;28;20038;-71
2023/11/17 03:47:20;;;;;;;3.78;1.85;;;7.70;99.90;;;;;;4992862;28;20026;-70
2023/11/17 03:49:52;;;;;;;6.47;2.72;;;7.70;99.90;;;;;;4975798;28;20525;-70
2023/11/17 03:52:21;;;;;;;3.63;2.25;;;7.70;99.90;;;;;;4976183;28;20069;-69
2023/11/17 03:54:47;;;;;;;6.55;2.15;;;7.70;99.90;;;;;;4959572;28;20030;-70
2023/11/17 03:57:13;;;;;;;2.35;1.85;;;7.70;99.90;;;;;;4975530;28;20488;-70
2023/11/17 03:59:39;;;;;;;1.83;1.38;;;7.70;99.90;;;;;;4992613;28;20038;-71
2023/11/17 04:02:05;;;;;;;3.25;2.05;;;7.70;99.90;;;;;;4993016;28;20033;-70
2023/11/17 04:04:31;;;;;;;11.07;2.03;;;7.70;99.90;;;;;;4993047;28;20361;-70
2023/11/17 04:06:57;;;;;;;6.13;2.72;;;7.70;99.90;;;;;;4967640;28;20037;-70
2023/11/17 04:09:24;;;;;;;10.95;2.60;;;7.70;99.90;;;;;;4992754;28;20056;-69
2023/11/17 04:11:52;;;;;;;3.53;2.22;;;7.70;99.90;;;;;;4992257;28;20052;-70
2023/11/17 04:14:23;;;;;;;5.97;2.25;;;7.70;99.90;;;;;;4975288;28;20125;-69
2023/11/17 04:16:50;;;;;;;6.18;2.55;;;7.80;99.90;;;;;;4973863;28;20062;-72
2023/11/17 04:19:19;;;;;;;3.72;2.40;;;7.80;99.90;;;;;;4959076;28;20169;-69
2023/11/17 04:21:46;;;;;;;3.70;2.15;;;7.80;99.90;;;;;;4974975;28;20030;-69
2023/11/17 04:24:13;;;;;;;3.53;2.33;;;7.80;99.90;;;;;;4975151;28;20487;-70
2023/11/17 04:26:40;;;;;;;6.93;2.35;;;7.80;99.90;;;;;;4974775;28;20030;-70
2023/11/17 04:29:07;;;;;;;15.88;3.13;;;7.90;99.90;;;;;;4975189;28;20028;-69
2023/11/17 04:31:33;;;;;;;7.43;2.83;;;7.90;99.90;;;;;;4974431;28;20022;-71
2023/11/17 04:33:59;;;;;;;4.15;1.70;;;7.90;99.90;;;;;;4958548;28;20097;-70
2023/11/17 04:36:25;;;;;;;3.42;1.95;;;7.80;99.90;;;;;;4991932;28;20035;-70
2023/11/17 04:38:50;;;;;;;7.63;2.58;;;7.90;99.90;;;;;;4974723;28;20124;-69
2023/11/17 04:41:16;;;;;;;5.63;3.25;;;7.90;99.90;;;;;;4974507;28;20480;-69
2023/11/17 04:43:42;;;;;;;3.70;2.05;;;7.80;99.90;;;;;;4958500;28;20034;-70
2023/11/17 04:46:17;;;;;;;3.22;1.88;;;7.90;99.90;;;;;;4971237;28;20098;-70
2023/11/17 04:48:43;;;;;;;4.32;2.33;;;7.90;99.90;;;;;;4974391;28;20026;-70
2023/11/17 04:51:09;;;;;;;10.32;2.42;;;7.90;99.90;;;;;;4991620;28;20037;-70
2023/11/17 04:53:34;;;;;;;9.35;3.42;;;7.90;99.90;;;;;;4971350;28;20118;-70
2023/11/17 04:56:00;;;;;;;6.57;2.50;;;7.80;99.90;;;;;;4984244;28;20057;-71
2023/11/17 04:58:26;;;;;;;5.50;2.70;;;7.80;99.90;;;;;;4970956;28;20401;-70
2023/11/17 05:00:54;;;;;;;4.75;2.55;;;7.80;99.90;;;;;;4973915;28;20384;-70
2023/11/17 05:03:20;;;;;;;11.13;2.78;;;7.70;99.90;;;;;;4991942;28;20038;-70
2023/11/17 05:05:48;;;;;;;3.45;2.00;;;7.80;99.90;;;;;;4991226;28;20060;-69
2023/11/17 05:08:16;;;;;;;8.70;3.00;;;7.80;99.90;;;;;;4991333;28;20113;-70
2023/11/17 05:10:43;;;;;;;5.95;2.20;;;7.80;99.90;;;;;;4974154;28;20027;-70
2023/11/17 05:13:10;;;;;;;4.38;2.55;;;7.80;99.90;;;;;;4973456;28;20036;-70
2023/11/17 05:15:36;;;;;;;6.32;2.28;;;7.80;99.90;;;;;;4973386;28;20160;-71
2023/11/17 05:18:02;;;;;;;7.78;2.38;;;7.80;99.90;;;;;;4984272;28;20407;-69
2023/11/17 05:20:28;;;;;;;9.50;2.50;;;7.80;99.90;;;;;;4987458;28;20027;-70
2023/11/17 05:22:54;;;;;;;11.73;3.40;;;7.80;99.90;;;;;;4990267;28;20041;-71
2023/11/17 05:25:20;;;;;;;3.50;2.42;;;7.80;99.90;;;;;;4993469;28;20045;-71
2023/11/17 05:27:46;;;;;;;5.97;2.35;;;7.80;99.90;;;;;;4973260;28;20089;-69
2023/11/17 05:30:14;;;;;;;3.72;2.05;;;7.80;99.90;;;;;;4990711;28;20113;-68
2023/11/17 05:32:40;;;;;;;6.90;3.03;;;7.80;99.90;;;;;;4982383;28;20035;-72
2023/11/17 05:35:07;;;;;;;3.67;1.92;;;7.80;99.90;;;;;;4990675;28;20033;-72
2023/11/17 05:37:34;;;;;;;3.90;2.40;;;7.80;99.90;;;;;;4973405;28;20749;-71
2023/11/17 05:40:00;;;;;;;4.90;3.10;;;7.80;99.90;;;;;;4957149;28;20037;-72
2023/11/17 05:42:28;;;;;;;5.15;2.65;;;7.80;99.90;;;;;;4973719;28;20027;-69
2023/11/17 05:44:54;;;;;;;5.18;2.97;;;7.80;99.90;;;;;;4982004;28;20033;-70
2023/11/17 05:47:21;;;;;;;5.88;2.75;;;7.80;99.90;;;;;;4953960;28;20501;-71
2023/11/17 05:49:47;;;;;;;5.75;2.42;;;7.80;99.90;;;;;;4971070;28;20151;-70
2023/11/17 05:52:16;;;;;;;7.45;2.97;;;7.80;99.90;;;;;;4970037;28;20035;-71
2023/11/17 05:54:46;;;;;;;5.63;3.30;;;7.80;99.90;;;;;;4983924;28;20031;-70
2023/11/17 05:57:13;;;;;;;6.78;2.83;;;7.80;99.90;;;;;;4968865;28;20669;-73
2023/11/17 05:59:39;;;;;;;4.90;2.75;;;7.70;99.90;;;;;;4969551;28;20543;-72
2023/11/17 06:02:06;;;;;;;4.68;2.55;;;7.70;99.90;;;;;;4976090;28;20041;-72
2023/11/17 06:04:32;;;;;;;4.85;2.50;;;7.80;99.90;;;;;;4977336;28;20116;-72
2023/11/17 06:06:59;;;;;;;5.28;2.65;;;7.80;99.90;;;;;;4981270;28;20432;-72
2023/11/17 06:09:25;;;;;;;4.72;2.78;;;7.80;99.90;;;;;;4989794;28;20101;-72
2023/11/17 06:11:51;;;;;;;9.18;2.92;;;7.80;99.90;;;;;;4992671;28;20410;-72
2023/11/17 06:14:17;;;;;;;5.55;3.30;;;7.90;99.90;;;;;;4994541;28;20019;-72
2023/11/17 06:16:42;;;;;;;5.68;2.72;;;7.90;99.90;;;;;;4993744;28;20034;-72
2023/11/17 06:19:12;;;;;;;9.77;3.25;;;7.90;99.90;;;;;;4981761;28;20589;-72
2023/11/17 06:21:38;;;;;;;8.18;2.95;;;7.90;99.90;;;;;;4991154;28;20089;-73
2023/11/17 06:24:04;;;;;;;10.55;3.25;;;7.90;99.90;;;;;;4994353;28;20044;-72
2023/11/17 06:26:30;;;;;;;6.35;2.35;;;7.90;99.90;;;;;;4986254;28;20077;-72
2023/11/17 06:28:59;;;;;;;10.57;3.78;;;7.90;99.90;;;;;;4996919;28;20026;-71
2023/11/17 06:31:28;;;;;;;5.90;3.00;;;8.00;99.90;;;;;;4989336;28;20477;-72
2023/11/17 06:33:54;;;;;;;10.15;3.95;;;7.90;99.90;;;;;;4985921;28;20105;-73
2023/11/17 06:36:21;;;;;;;4.80;2.25;;;7.90;99.90;;;;;;4993592;28;20476;-70
2023/11/17 06:38:47;;;;;;;7.78;3.85;;;7.80;99.90;;;;;;4966766;28;20027;-69
2023/11/17 06:41:14;;;;;;;7.75;3.33;;;7.80;99.90;;;;;;4982529;28;20109;-70
2023/11/17 06:43:41;;;;;;;5.85;3.08;;;7.90;99.90;;;;;;4981441;28;20041;-69
2023/11/17 06:46:07;;;;;;;4.38;2.92;;;7.90;99.90;;;;;;4975733;28;20030;-69
2023/11/17 06:48:37;;;;;;;9.18;3.58;;;7.90;99.90;;;;;;4975945;28;20128;-70
2023/11/17 06:51:07;;;;;;;10.38;3.92;;;8.00;99.90;;;;;;4976608;28;20123;-70
2023/11/17 06:53:33;;;;;;;6.35;3.30;;;7.90;99.90;;;;;;4976615;28;20054;-69
2023/11/17 06:56:00;;;;;;;6.43;2.75;;;7.90;99.90;;;;;;4982158;28;20031;-71
2023/11/17 06:58:27;;;;;;;8.10;2.80;;;7.90;99.90;;;;;;4974557;28;20027;-71
2023/11/17 07:00:53;;;;;;;4.45;2.35;;;8.00;99.90;;;;;;4991517;28;20038;-70
2023/11/17 07:03:22;;;;;;;5.65;3.78;;;8.00;99.90;;;;;;4993901;28;20049;-71
2023/11/17 07:05:49;;;;;;;6.18;2.78;;;8.10;99.90;;;;;;4992867;28;20520;-72
2023/11/17 07:08:17;;;;;;;6.40;3.33;;;8.10;99.90;;;;;;4976188;28;20130;-71
2023/11/17 07:10:44;;;;;;;9.40;3.67;;;8.10;99.90;;;;;;4975900;28;20026;-70
2023/11/17 07:13:10;;;;;;;5.55;3.13;;;8.00;99.90;;;;;;4956713;28;20358;-71
2023/11/17 07:15:37;;;;;;;10.10;3.22;;;8.00;99.90;;;;;;4972045;28;20373;-71
2023/11/17 07:18:03;;;;;;;8.88;3.55;;;8.00;99.90;;;;;;4997130;28;20490;-70
2023/11/17 07:20:29;;;;;;;7.53;2.92;;;8.00;99.90;;;;;;4992627;28;20033;-71
2023/11/17 07:22:55;;;;;;;14.20;4.28;;;8.00;99.90;;;;;;4967744;28;20031;-72
2023/11/17 07:25:22;;;;;;;14.02;4.35;;;8.10;99.90;;;;;;4992491;28;20030;-67
2023/11/17 07:27:49;;;;;;;10.68;3.20;;;8.10;99.90;;;;;;4992992;28;20071;-68
2023/11/17 07:30:16;;;;;;;12.18;3.53;;;8.20;99.90;;;;;;4993010;28;20030;-70
2023/11/17 07:32:43;;;;;;;12.02;5.07;;;8.20;99.90;;;;;;4973696;28;20027;-68
2023/11/17 07:35:11;;;;;;;9.93;4.65;;;8.20;99.90;;;;;;4985205;28;20049;-67
2023/11/17 07:37:39;;;;;;;8.73;4.93;;;8.20;99.90;;;;;;4967799;28;20035;-70
2023/11/17 07:40:06;;;;;;;8.65;3.90;;;8.20;99.90;;;;;;4968201;28;20084;-74
2023/11/17 07:42:33;;;;;;;8.73;4.03;;;8.10;99.90;;;;;;4971343;28;20558;-74
2023/11/17 07:44:59;;;;;;;7.90;3.70;;;8.10;99.90;;;;;;4957840;28;20384;-75
2023/11/17 07:47:25;;;;;;;7.38;3.80;;;8.10;99.90;;;;;;4958080;28;20031;-72
2023/11/17 07:49:55;;;;;;;15.52;4.47;;;8.10;99.90;;;;;;4990203;28;21166;-69
2023/11/17 07:52:24;;;;;;;10.90;4.05;;;8.10;99.90;;;;;;4959236;28;20056;-75
2023/11/17 07:54:50;;;;;;;6.93;3.17;;;8.10;99.90;;;;;;4991196;28;20038;-72
2023/11/17 07:57:17;;;;;;;13.07;5.03;;;8.10;99.90;;;;;;4991829;28;20036;-75
2023/11/17 07:59:43;;;;;;;8.50;4.03;;;8.10;99.90;;;;;;4991182;28;20109;-73
2023/11/17 08:02:09;;;;;;;12.32;4.63;;;8.20;99.90;;;;;;4974916;28;20102;-74
2023/11/17 08:04:37;;;;;;;11.73;4.32;;;8.20;99.90;;;;;;4973799;28;20543;-74
2023/11/17 08:07:05;;;;;;;8.55;3.67;;;8.10;99.90;;;;;;4991318;28;20117;-73
2023/11/17 08:09:33;;;;;;;14.10;4.00;;;8.20;99.90;;;;;;4971642;28;20084;-74
2023/11/17 08:12:00;;;;;;;7.85;3.22;;;8.20;99.90;;;;;;4991554;28;20023;-73
2023/11/17 08:14:26;;;;;;;7.25;4.18;;;8.10;99.90;;;;;;4974320;28;20029;-73
2023/11/17 08:16:52;;;;;;;7.32;3.60;;;8.20;99.90;;;;;;4971940;28;20034;-73
2023/11/17 08:19:18;;;;;;;17.52;4.75;;;8.20;99.90;;;;;;4985745;28;20052;-72
2023/11/17 08:21:44;;;;;;;11.23;5.60;;;8.30;99.90;;;;;;4973774;28;20030;-74
2023/11/17 08:24:09;;;;;;;9.68;4.57;;;8.30;99.90;;;;;;4991208;28;20080;-73
2023/11/17 08:26:38;;;;;;;11.15;3.92;;;8.30;99.90;;;;;;4973871;28;20026;-74
2023/11/17 08:29:04;;;;;;;10.15;3.95;;;8.30;99.90;;;;;;4974638;28;20030;-74
2023/11/17 08:31:33;;;;;;;13.55;3.55;;;8.30;99.90;;;;;;4990807;28;20060;-73
2023/11/17 08:34:00;;;;;;;9.95;4.05;;;8.40;99.90;;;;;;4991235;28;20022;-73
2023/11/17 08:36:28;;;;;;;8.27;3.92;;;8.40;99.90;;;;;;4957242;28;20056;-73
2023/11/17 08:38:56;;;;;;;6.47;3.50;;;8.40;99.90;;;;;;4990691;28;20026;-73
2023/11/17 08:41:23;;;;;;;12.05;4.75;;;8.40;99.90;;;;;;4973703;28;20022;-72
2023/11/17 08:43:51;;;;;;;12.43;4.05;;;8.50;99.90;;;;;;4973722;28;20038;-73
2023/11/17 08:46:18;;;;;;;8.85;4.95;;;8.50;99.90;;;;;;4973594;28;20108;-73
2023/11/17 08:48:44;;;;;;;10.27;4.35;;;8.60;99.90;;;;;;4973145;28;20038;-73
2023/11/17 08:51:09;;;;;;;8.75;4.60;;;8.50;99.90;;;;;;4954806;28;20180;-74
2023/11/17 08:53:35;;;;;;;7.22;3.55;;;8.50;99.90;;;;;;4957633;28;20116;-71
2023/11/17 08:56:01;;;;;;;15.13;4.07;;;8.50;99.90;;;;;;4972802;28;20034;-72
2023/11/17 08:58:28;;;;;;;11.90;5.05;;;8.50;99.90;;;;;;4991137;28;20030;-72
2023/11/17 09:00:55;;;;;;;13.18;4.88;;;8.50;99.90;;;;;;4972311;28;20097;-73
2023/11/17 09:03:20;;;;;;;11.70;4.63;;;8.50;99.90;;;;;;4973357;28;20037;-73
2023/11/17 09:05:46;;;;;;;8.52;3.67;;;8.60;99.90;;;;;;4989536;28;20105;-72
2023/11/17 09:08:12;;;;;;;10.88;4.38;;;8.60;99.90;;;;;;4993241;28;20022;-72
2023/11/17 09:10:38;;;;;;;9.18;4.80;;;8.80;99.90;;;;;;4972691;28;20038;-72
2023/11/17 09:13:05;;;;;;;10.35;4.28;;;8.80;99.90;;;;;;4986438;28;20037;-73
2023/11/17 09:15:33;;;;;;;12.23;4.28;;;8.80;99.90;;;;;;4971970;28;20035;-72
2023/11/17 09:18:00;;;;;;;12.38;4.30;;;9.00;99.90;;;;;;4970954;28;20566;-73
2023/11/17 09:20:28;;;;;;;9.60;4.13;;;9.00;99.90;;;;;;4973606;28;20113;-73
2023/11/17 09:22:54;;;;;;;12.23;3.75;;;9.00;99.90;;;;;;4971357;28;20027;-72
2023/11/17 09:25:23;;;;;;;8.15;3.95;;;9.10;99.90;;;;;;4972767;28;20084;-77
2023/11/17 09:27:59;;;;;;;12.50;4.25;;;9.10;99.90;;;;;;4973702;28;20085;-72
2023/11/17 09:30:28;;;;;;;18.10;4.90;;;9.10;99.90;;;;;;4951173;28;20531;-74
2023/11/17 09:32:57;;;;;;;9.48;3.15;;;9.10;99.90;;;;;;4988169;28;20500;-73
2023/11/17 09:35:26;;;;;;;11.45;4.55;;;9.10;99.90;;;;;;4974400;28;20034;-75
2023/11/17 09:38:04;;;;;;;8.32;3.95;;;9.10;99.90;;;;;;4993906;28;20035;-72
2023/11/17 09:40:36;;;;;;;12.45;3.83;;;9.10;99.90;;;;;;4994076;28;20034;-73
2023/11/17 09:43:22;;;;;;;10.30;4.00;;;9.10;99.90;;;;;;4976355;28;20038;-73
2023/11/17 09:45:56;;;;;;;13.63;4.28;;;9.00;99.90;;;;;;4981999;28;20030;-73
2023/11/17 09:48:25;;;;;;;8.95;3.83;;;9.10;99.90;;;;;;4994589;28;20029;-74
2023/11/17 09:50:52;;;;;;;5.65;3.90;;;9.10;99.90;;;;;;4976701;28;20109;-74
2023/11/17 09:53:23;;;;;;;5.20;2.42;;;9.20;99.90;;;;;;4976518;28;20030;-74
2023/11/17 09:55:50;;;;;;;8.48;3.17;;;9.10;99.90;;;;;;4978619;28;20034;-73
2023/11/17 09:58:17;;;;;;;7.88;3.60;;;9.10;99.90;;;;;;4976114;28;20030;-73
2023/11/17 10:00:45;;;;;;;12.73;3.67;;;9.10;99.90;;;;;;4975812;28;20037;-73
2023/11/17 10:03:13;;;;;;;9.70;3.40;;;9.00;99.90;;;;;;4993590;28;20040;-74
2023/11/17 10:05:41;;;;;;;16.98;4.55;;;9.10;99.90;;;;;;4975611;28;20137;-74
2023/11/17 10:08:15;;;;;;;9.77;3.95;;;9.10;99.90;;;;;;4994045;28;20023;-72
2023/11/17 10:10:46;;;;;;;6.80;3.03;;;9.10;99.90;;;;;;4980636;28;20030;-74
2023/11/17 10:13:13;;;;;;;;;;;9.10;99.90;;;;;;4961169;28;20097;-72
2023/11/17 10:15:50;;;;;;;8.02;3.53;;;9.10;99.90;;;;;;4976108;28;19977;-71
2023/11/17 10:18:31;;;;;;;7.40;3.47;;;9.10;99.90;;;;;;4993372;28;20134;-75
2023/11/17 10:20:58;;;;;;;14.82;4.28;;;9.10;99.90;;;;;;4982781;28;20030;-72
2023/11/17 10:23:25;;;;;;;7.05;3.45;;;9.20;99.90;;;;;;4976217;28;20049;-74
2023/11/17 10:25:54;;;;;;;8.32;3.60;;;9.10;99.90;;;;;;4982017;28;20085;-72
2023/11/17 10:28:22;;;;;;;14.63;4.72;;;9.10;99.90;;;;;;4956921;28;20392;-75
2023/11/17 10:30:54;;;;;;;18.20;4.30;;;9.20;99.90;;;;;;4974420;28;20469;-74
2023/11/17 10:33:33;;;;;;;9.85;3.88;;;9.30;99.90;;;;;;4960024;28;20026;-73
2023/11/17 10:36:10;;;;;;;12.55;4.25;;;9.30;99.90;;;;;;4967358;28;20045;-73
2023/11/17 10:38:45;;;;;;;6.18;3.03;;;9.20;99.90;;;;;;4973940;28;20022;-74
2023/11/17 10:41:20;;;;;;;8.65;4.35;;;9.10;99.90;;;;;;4992415;28;20033;-73
2023/11/17 10:43:54;;;;;;;7.30;3.88;;;9.10;99.90;;;;;;4975695;28;20058;-73
2023/11/17 10:46:29;;;;;;;6.72;3.28;;;9.10;99.90;;;;;;4992260;28;20045;-73
2023/11/17 10:49:06;;;;;;;10.88;4.25;;;9.10;99.90;;;;;;4973984;28;20790;-73
2023/11/17 10:51:44;;;;;;;9.73;4.05;;;9.20;99.90;;;;;;4989957;28;20046;-72
2023/11/17 10:54:13;;;;;;;12.55;4.30;;;9.20;99.90;;;;;;4986203;28;20117;-73
2023/11/17 10:56:42;;;;;;;8.45;3.28;;;9.10;99.90;;;;;;4971706;28;20038;-75
2023/11/17 10:59:21;;;;;;;9.13;3.53;;;9.20;99.90;;;;;;4975878;28;20034;-75
2023/11/17 11:01:50;;;;;;;14.20;3.65;;;9.10;99.90;;;;;;4977221;28;20039;-75
2023/11/17 11:04:24;;;;;;;7.82;4.05;;;9.20;99.90;;;;;;4994100;28;20104;-75
2023/11/17 11:06:57;;;;;;;5.80;3.08;;;9.10;99.90;;;;;;4976786;28;20362;-75
2023/11/17 11:09:36;;;;;;;7.43;3.28;;;9.00;99.90;;;;;;4975757;28;20034;-74
2023/11/17 11:12:11;;;;;;;7.60;3.97;;;9.10;99.90;;;;;;4974183;28;20062;-75
2023/11/17 11:14:43;;;;;;;7.68;3.33;;;9.10;99.90;;;;;;4975924;28;20030;-72
2023/11/17 11:17:12;;;;;;;8.55;3.88;;;9.20;99.90;;;;;;4987278;28;20054;-75
2023/11/17 11:19:41;;;;;;;7.43;3.63;;;9.20;99.90;;;;;;4975111;28;20026;-74
2023/11/17 11:22:07;;;;;;;11.80;3.33;;;9.10;99.90;;;;;;4976673;28;20023;-74
2023/11/17 11:24:36;;;;;;;7.70;3.65;;;9.00;99.90;;;;;;4974596;28;20030;-73
2023/11/17 11:27:05;;;;;;;7.88;2.72;;;8.80;99.90;;;;;;4972292;28;20044;-74
2023/11/17 11:29:32;;;;;;;3.50;1.88;;;8.70;99.90;;;;;;4956187;28;20035;-77
2023/11/17 11:31:58;;;;;;;10.25;4.13;;;8.60;99.90;;;;;;4990581;28;20034;-76
2023/11/17 11:34:25;;;;;;;7.28;2.85;;;8.50;99.90;;;;;;4974939;28;20037;-76
2023/11/17 11:36:51;;;;;;;12.30;3.97;;;8.50;99.90;;;;;;4992279;28;20073;-77
2023/11/17 11:39:17;;;;;;;11.95;2.88;;;8.50;99.90;;;;;;4991794;28;20026;-75
2023/11/17 11:41:45;;;;;;;7.35;3.40;;;8.50;99.90;;;;;;4991598;28;20076;-75
2023/11/17 11:44:12;;;;;;;9.27;3.10;;;8.40;99.90;;;;;;4959064;28;20543;-75
2023/11/17 11:46:39;;;;;;;10.13;5.75;;;8.40;99.90;;;;;;4973604;28;20121;-75
2023/11/17 11:49:11;;;;;;;7.05;2.97;;;8.40;99.90;;;;;;4971072;28;20109;-75
2023/11/17 11:52:11;;;;;;;8.55;3.55;;;8.40;99.90;;;;;;4970988;28;20045;-75
2023/11/17 11:54:37;;;;;;;6.97;4.05;;;8.30;99.90;;;;;;4990203;28;20034;-75
2023/11/17 11:57:27;;;;;;;7.13;3.63;;;8.40;99.90;;;;;;4991659;28;20033;-74
2023/11/17 12:00:12;;;;;;;10.63;3.55;;;8.40;99.90;;;;;;4970037;28;20117;-75
2023/11/17 12:02:55;;;;;;;9.48;4.53;;;8.40;99.90;;;;;;4988465;28;20117;-74
2023/11/17 12:05:28;;;;;;;10.75;4.50;;;8.40;99.90;;;;;;4972530;28;20047;-74
2023/11/17 12:08:03;;;;;;;6.20;3.17;;;8.40;99.90;;;;;;4972448;28;20030;-74
2023/11/17 12:10:44;;;;;;;5.82;2.60;;;8.40;99.90;;;;;;4971546;28;20027;-74
2023/11/17 12:14:08;;;;;;;13.10;3.58;;;8.40;99.90;;;;;;4965463;28;20030;-75
2023/11/17 12:16:36;;;;;;;15.35;4.60;;;8.40;99.90;;;;;;4955081;28;20042;-75
2023/11/17 12:19:04;;;;;;;7.18;3.55;;;8.40;99.90;;;;;;4990356;28;20489;-74
2023/11/17 12:21:38;;;;;;;9.95;4.72;;;8.30;99.90;;;;;;4971768;28;20054;-75
2023/11/17 12:24:10;;;;;;;7.93;3.58;;;8.40;99.90;;;;;;4973751;28;20551;-74
2023/11/17 12:26:40;;;;;;;15.98;4.03;;;8.40;99.90;;;;;;4957708;28;20049;-73
2023/11/17 12:29:11;;;;;;;10.27;4.20;;;8.40;99.90;;;;;;4952527;28;20414;-75
2023/11/17 12:31:38;;;;;;;7.60;4.43;;;8.40;99.90;;;;;;4991565;28;20054;-73
2023/11/17 12:34:07;;;;;;;7.80;3.10;;;8.30;99.90;;;;;;4991255;28;20038;-72
2023/11/17 12:36:35;;;;;;;7.47;3.92;;;8.30;99.90;;;;;;4973961;28;20030;-73
2023/11/17 12:39:11;;;;;;;6.22;3.17;;;8.30;99.90;;;;;;4973290;28;20133;-74
2023/11/17 12:41:38;;;;;;;5.68;2.33;;;8.40;99.90;;;;;;4990797;28;20037;-75
2023/11/17 12:44:05;;;;;;;8.10;3.45;;;8.30;99.90;;;;;;4977428;28;20030;-74
2023/11/17 12:46:31;;;;;;;5.80;3.45;;;8.30;99.90;;;;;;4972208;28;20031;-74
2023/11/17 12:48:59;;;;;;;5.88;3.15;;;8.30;99.90;;;;;;4957497;28;20045;-74
2023/11/17 12:51:29;;;;;;;9.07;3.78;;;8.40;99.90;;;;;;4973450;28;20022;-73
2023/11/17 12:54:01;;;;;;;5.60;2.80;;;8.40;99.90;;;;;;4972438;28;20031;-72
2023/11/17 12:56:28;;;;;;;3.83;2.25;;;8.30;99.90;;;;;;4974021;28;20116;-73
2023/11/17 12:58:54;;;;;;;6.10;3.08;;;8.30;99.90;;;;;;4973476;28;20537;-74
2023/11/17 13:01:24;;;;;;;7.57;3.40;;;8.30;99.90;;;;;;4973401;28;20030;-74
2023/11/17 13:03:59;;;;;;;8.30;3.50;;;8.30;99.90;;;;;;4973372;28;20031;-76
2023/11/17 13:06:27;;;;;;;8.45;3.17;;;8.30;99.90;;;;;;4974617;28;20062;-75